Virginia Lee — WDH7024 — position and weather

sailwx.info

Track history (hours):
 
Tides and Currents Weather Stations Pressure Air Temp Water Temp Dewpoint Dewpoint Depression Visibility Wind Speed Wind Dir Waves Ship Positions

Virginia Lee

Owner: Virginia Lee Holdings LTD, New Albany, OH. More information available from US FCC via Universal Licensing System and Coast Guard Vessel Documentation Center.

Last reported at 2018-Jul-05 13:30 UTC. Time now 2018-Jul-23 11:35 UTC.
Position N 40°42' W 073°59'.
Warning: this ship's position is 17 days out of date.

Length 31 m.

Type: Pleasure craft. MMSI: 367643980.

Date/timePositionNaut miles runAvg speedWind from/ knotsBaromVisibWave heightAir tempDewpointWater temp
2018-Jul-05 13:30N 40°42' W 073°59'2 4.5
2018-Jul-05 13:00N 40°43' W 074°02'0 0.0
2018-Jul-04 23:22N 40°43' W 074°03'0 0.0
2018-Jul-04 22:58N 40°43' W 074°03'0 0.0
2018-Jul-04 22:28N 40°43' W 074°03'0 0.0
2018-Jul-04 21:58N 40°43' W 074°03'0 0.0
2018-Jul-04 21:28N 40°43' W 074°03'0 0.0
2018-Jul-04 20:58N 40°43' W 074°03'0 0.0
2018-Jul-04 20:28N 40°43' W 074°03'0 0.0
2018-Jul-04 19:58N 40°43' W 074°03'0 0.0
2018-Jul-04 19:28N 40°43' W 074°03'0 0.0
2018-Jul-04 18:58N 40°43' W 074°03'0 0.0
2018-Jul-04 18:28N 40°43' W 074°03'0 0.0
2018-Jul-04 17:58N 40°43' W 074°03'0 0.0
2018-Jul-04 17:28N 40°43' W 074°03'0 0.0
2018-Jul-04 16:58N 40°43' W 074°03'0 0.0
2018-Jul-04 16:28N 40°43' W 074°03'0 0.0
2018-Jul-04 15:58N 40°43' W 074°03'0 0.0
2018-Jul-04 15:28N 40°43' W 074°03'0 0.0
2018-Jul-04 14:58N 40°43' W 074°03'0 0.0
2018-Jul-04 14:28N 40°43' W 074°03'0 0.0
2018-Jul-04 13:58N 40°43' W 074°03'0 0.0
2018-Jul-04 13:28N 40°43' W 074°03'0 0.0
2018-Jul-04 12:58N 40°43' W 074°03'0 0.0
2018-Jul-04 12:28N 40°43' W 074°03'0 0.0
2018-Jul-04 11:58N 40°43' W 074°03'0 0.0
2018-Jul-04 11:28N 40°43' W 074°03'0 0.0
2018-Jul-04 10:58N 40°43' W 074°03'0 0.0
2018-Jul-04 10:28N 40°43' W 074°03'0 0.0
2018-Jul-04 09:58N 40°43' W 074°03'0 0.0
2018-Jul-04 09:28N 40°43' W 074°03'0 0.0
2018-Jul-04 08:58N 40°43' W 074°03'0 0.0
2018-Jul-04 08:28N 40°43' W 074°03'0 0.0
2018-Jul-04 07:58N 40°43' W 074°03'0 0.0
2018-Jul-04 07:28N 40°43' W 074°03'0 0.0
2018-Jul-04 06:58N 40°43' W 074°03'0 0.0
2018-Jul-04 06:28N 40°43' W 074°03'0 0.0
2018-Jul-04 05:58N 40°43' W 074°03'0 0.0
2018-Jul-04 05:28N 40°43' W 074°03'0 0.0
2018-Jul-04 04:58N 40°43' W 074°03'0 0.0
2018-Jul-04 04:28N 40°43' W 074°03'0 0.0
2018-Jul-04 03:58N 40°43' W 074°03'0 0.0
2018-Jul-04 03:28N 40°43' W 074°03'0 0.0
2018-Jul-04 02:58N 40°43' W 074°03'0 0.0
2018-Jul-04 02:28N 40°43' W 074°03'0 0.0
2018-Jul-04 01:55N 40°43' W 074°03'0 0.0
2018-Jul-04 01:28N 40°43' W 074°03'0 0.0
2018-Jul-04 00:58N 40°43' W 074°03'0 0.0
2018-Jul-04 00:28N 40°43' W 074°03'0 0.0
2018-Jul-03 23:58N 40°43' W 074°03'0 0.0
2018-Jul-03 23:28N 40°43' W 074°03'0 0.0
2018-Jul-03 22:58N 40°43' W 074°03'0 0.0
2018-Jul-03 22:28N 40°43' W 074°03'0 0.0
2018-Jul-03 21:58N 40°43' W 074°03'0 0.0
2018-Jul-03 21:28N 40°43' W 074°03'0 0.0
2018-Jul-03 20:58N 40°43' W 074°03'0 0.0
2018-Jul-03 20:28N 40°43' W 074°03'0 0.0
2018-Jul-03 19:58N 40°43' W 074°03'0 0.0
2018-Jul-03 19:28N 40°43' W 074°03'2 4.6
2018-Jul-03 18:59N 40°44' W 074°01'1 0.2
2018-Jul-03 15:18N 40°44' W 074°01'  
2018-Jun-26 01:51N 40°43' W 074°03'0 0.0
2018-Jun-26 01:30N 40°43' W 074°03'0 0.0
2018-Jun-26 01:00N 40°43' W 074°03'0 0.0
2018-Jun-26 00:30N 40°43' W 074°03'0 0.0
2018-Jun-26 00:00N 40°43' W 074°03'0 0.0
2018-Jun-25 23:30N 40°43' W 074°03'0 0.0
2018-Jun-25 23:00N 40°43' W 074°03'0 0.0
2018-Jun-25 22:30N 40°43' W 074°03'0 0.0
2018-Jun-25 21:57N 40°43' W 074°03'0 0.0
2018-Jun-25 21:30N 40°43' W 074°03'0 0.0
2018-Jun-25 21:00N 40°43' W 074°03'0 0.0
2018-Jun-25 20:30N 40°43' W 074°03'0 0.0
2018-Jun-25 20:00N 40°43' W 074°03'0 0.0
2018-Jun-25 19:30N 40°43' W 074°03'0 0.0
2018-Jun-25 19:00N 40°43' W 074°03'0 0.4
2018-Jun-25 18:30N 40°43' W 074°02'3 6.7
2018-Jun-25 18:00N 40°39' W 074°03'  
Track history (hours):
 
Tides and Currents Weather Stations Pressure Air Temp Water Temp Dewpoint Dewpoint Depression Visibility Wind Speed Wind Dir Waves Ship Positions

Virginia Lee

Owner: Virginia Lee Holdings LTD, New Albany, OH. More information available from US FCC via Universal Licensing System and Coast Guard Vessel Documentation Center.

Last reported at 2018-Jul-05 13:30 UTC. Time now 2018-Jul-23 11:35 UTC.
Position N 40°42' W 073°59'.
Warning: this ship's position is 17 days out of date.

Length 31 m.

Type: Pleasure craft. MMSI: 367643980.

Date/timePositionNaut miles runAvg speedWind from/ knotsBaromVisibWave heightAir tempDewpointWater temp
2018-Jul-05 13:30N 40°42' W 073°59'2 4.5
2018-Jul-05 13:00N 40°43' W 074°02'0 0.0
2018-Jul-04 23:22N 40°43' W 074°03'0 0.0
2018-Jul-04 22:58N 40°43' W 074°03'0 0.0
2018-Jul-04 22:28N 40°43' W 074°03'0 0.0
2018-Jul-04 21:58N 40°43' W 074°03'0 0.0
2018-Jul-04 21:28N 40°43' W 074°03'0 0.0
2018-Jul-04 20:58N 40°43' W 074°03'0 0.0
2018-Jul-04 20:28N 40°43' W 074°03'0 0.0
2018-Jul-04 19:58N 40°43' W 074°03'0 0.0
2018-Jul-04 19:28N 40°43' W 074°03'0 0.0
2018-Jul-04 18:58N 40°43' W 074°03'0 0.0
2018-Jul-04 18:28N 40°43' W 074°03'0 0.0
2018-Jul-04 17:58N 40°43' W 074°03'0 0.0
2018-Jul-04 17:28N 40°43' W 074°03'0 0.0
2018-Jul-04 16:58N 40°43' W 074°03'0 0.0
2018-Jul-04 16:28N 40°43' W 074°03'0 0.0
2018-Jul-04 15:58N 40°43' W 074°03'0 0.0
2018-Jul-04 15:28N 40°43' W 074°03'0 0.0
2018-Jul-04 14:58N 40°43' W 074°03'0 0.0
2018-Jul-04 14:28N 40°43' W 074°03'0 0.0
2018-Jul-04 13:58N 40°43' W 074°03'0 0.0
2018-Jul-04 13:28N 40°43' W 074°03'0 0.0
2018-Jul-04 12:58N 40°43' W 074°03'0 0.0
2018-Jul-04 12:28N 40°43' W 074°03'0 0.0
2018-Jul-04 11:58N 40°43' W 074°03'0 0.0
2018-Jul-04 11:28N 40°43' W 074°03'0 0.0
2018-Jul-04 10:58N 40°43' W 074°03'0 0.0
2018-Jul-04 10:28N 40°43' W 074°03'0 0.0
2018-Jul-04 09:58N 40°43' W 074°03'0 0.0
2018-Jul-04 09:28N 40°43' W 074°03'0 0.0
2018-Jul-04 08:58N 40°43' W 074°03'0 0.0
2018-Jul-04 08:28N 40°43' W 074°03'0 0.0
2018-Jul-04 07:58N 40°43' W 074°03'0 0.0
2018-Jul-04 07:28N 40°43' W 074°03'0 0.0
2018-Jul-04 06:58N 40°43' W 074°03'0 0.0
2018-Jul-04 06:28N 40°43' W 074°03'0 0.0
2018-Jul-04 05:58N 40°43' W 074°03'0 0.0
2018-Jul-04 05:28N 40°43' W 074°03'0 0.0
2018-Jul-04 04:58N 40°43' W 074°03'0 0.0
2018-Jul-04 04:28N 40°43' W 074°03'0 0.0
2018-Jul-04 03:58N 40°43' W 074°03'0 0.0
2018-Jul-04 03:28N 40°43' W 074°03'0 0.0
2018-Jul-04 02:58N 40°43' W 074°03'0 0.0
2018-Jul-04 02:28N 40°43' W 074°03'0 0.0
2018-Jul-04 01:55N 40°43' W 074°03'0 0.0
2018-Jul-04 01:28N 40°43' W 074°03'0 0.0
2018-Jul-04 00:58N 40°43' W 074°03'0 0.0
2018-Jul-04 00:28N 40°43' W 074°03'0 0.0
2018-Jul-03 23:58N 40°43' W 074°03'0 0.0
2018-Jul-03 23:28N 40°43' W 074°03'0 0.0
2018-Jul-03 22:58N 40°43' W 074°03'0 0.0
2018-Jul-03 22:28N 40°43' W 074°03'0 0.0
2018-Jul-03 21:58N 40°43' W 074°03'0 0.0
2018-Jul-03 21:28N 40°43' W 074°03'0 0.0
2018-Jul-03 20:58N 40°43' W 074°03'0 0.0
2018-Jul-03 20:28N 40°43' W 074°03'0 0.0
2018-Jul-03 19:58N 40°43' W 074°03'0 0.0
2018-Jul-03 19:28N 40°43' W 074°03'2 4.6
2018-Jul-03 18:59N 40°44' W 074°01'1 0.2
2018-Jul-03 15:18N 40°44' W 074°01'  
2018-Jun-26 01:51N 40°43' W 074°03'0 0.0
2018-Jun-26 01:30N 40°43' W 074°03'0 0.0
2018-Jun-26 01:00N 40°43' W 074°03'0 0.0
2018-Jun-26 00:30N 40°43' W 074°03'0 0.0
2018-Jun-26 00:00N 40°43' W 074°03'0 0.0
2018-Jun-25 23:30N 40°43' W 074°03'0 0.0
2018-Jun-25 23:00N 40°43' W 074°03'0 0.0
2018-Jun-25 22:30N 40°43' W 074°03'0 0.0
2018-Jun-25 21:57N 40°43' W 074°03'0 0.0
2018-Jun-25 21:30N 40°43' W 074°03'0 0.0
2018-Jun-25 21:00N 40°43' W 074°03'0 0.0
2018-Jun-25 20:30N 40°43' W 074°03'0 0.0
2018-Jun-25 20:00N 40°43' W 074°03'0 0.0
2018-Jun-25 19:30N 40°43' W 074°03'0 0.0
2018-Jun-25 19:00N 40°43' W 074°03'0 0.4
2018-Jun-25 18:30N 40°43' W 074°02'3 6.7
2018-Jun-25 18:00N 40°39' W 074°03'  

Dump ship's entire track history